Time;durP1;ratioP1;P1;durP2;ratioP2;P2;SDS_P1;SDS_P2;PMS_P1;PMS_P2;Temp;Humidity;BMP_temperature;BMP_pressure;BME280_temperature;BME280_humidity;BME280_pressure;Samples;Min_cycle;Max_cycle;Signal;HPM_P1;HPM_P2
2022/07/03 00:00:52;;;;;;;;;;;23.70;69.20;;;23.09;63.94;96672.56;4233827;33;20302;-87
2022/07/03 00:03:21;;;;;;;;;;;23.70;69.20;;;23.08;64.15;96668.97;4262965;33;19978;-86
2022/07/03 00:05:49;;;;;;;;;;;23.70;69.20;;;23.09;63.84;96669.78;4238220;33;20012;-86
2022/07/03 00:08:18;;;;;;;;;;;23.70;69.10;;;23.07;64.12;96675.72;4233108;33;19902;-86
2022/07/03 00:10:47;;;;;;;;;;;23.70;69.20;;;23.08;64.20;96682.09;4209131;33;19999;-87
2022/07/03 00:13:16;;;;;;;;;;;23.70;69.10;;;23.08;64.15;96676.50;4262011;33;19909;-86
2022/07/03 00:15:44;;;;;;;;;;;23.60;69.10;;;23.08;64.13;96673.72;4262074;33;20035;-87
2022/07/03 00:18:15;;;;;;;;;;;23.60;69.00;;;23.07;64.20;96670.13;4256807;33;19909;-87
2022/07/03 00:20:47;;;;;;;;;;;23.60;69.10;;;23.07;64.27;96674.88;4232108;33;19902;-87
2022/07/03 00:23:18;;;;;;;;;;;23.60;69.10;;;23.07;64.27;96677.66;4209702;33;19909;-87
2022/07/03 00:25:47;;;;;;;;;;;23.60;69.10;;;23.06;64.08;96662.91;4233299;33;20244;-87
2022/07/03 00:28:16;;;;;;;;;;;23.60;69.00;;;23.06;64.17;96671.28;4213684;33;20391;-86
2022/07/03 00:30:44;;;;;;;;;;;23.60;68.90;;;23.06;64.14;96662.06;4237492;33;19902;-86
2022/07/03 00:33:15;;;;;;;;;;;23.60;68.90;;;23.05;63.90;96666.03;4261672;33;19950;-87
2022/07/03 00:35:44;;;;;;;;;;;23.60;68.90;;;23.04;63.87;96656.03;4262608;33;20451;-86
2022/07/03 00:38:12;;;;;;;;;;;23.60;68.90;;;23.05;64.26;96657.66;4262467;33;19902;-87
2022/07/03 00:40:41;;;;;;;;;;;23.60;68.90;;;23.04;64.14;96642.88;4237155;33;19901;-86
2022/07/03 00:43:10;;;;;;;;;;;23.60;69.00;;;23.04;63.68;96642.06;4262534;33;19909;-86
2022/07/03 00:45:40;;;;;;;;;;;23.60;68.90;;;23.05;63.95;96640.88;4238016;33;20061;-86
2022/07/03 00:48:08;;;;;;;;;;;23.60;68.90;;;23.04;63.71;96653.25;4262419;33;19902;-86
2022/07/03 00:50:39;;;;;;;;;;;23.60;68.80;;;23.02;63.82;96649.97;4237258;33;20248;-86
2022/07/03 00:53:08;;;;;;;;;;;23.60;68.80;;;23.03;63.73;96651.59;4237429;33;19901;-86
2022/07/03 00:55:36;;;;;;;;;;;23.60;68.80;;;23.02;63.48;96650.78;4261417;33;19902;-87
2022/07/03 00:58:05;;;;;;;;;;;23.60;68.80;;;23.00;63.79;96653.09;4261371;33;19901;-87
2022/07/03 01:00:34;;;;;;;;;;;23.60;68.80;;;22.99;63.83;96649.50;4260990;33;20151;-86
2022/07/03 01:03:06;;;;;;;;;;;23.60;68.80;;;23.01;63.75;96642.75;4261554;33;19905;-87
2022/07/03 01:05:40;;;;;;;;;;;23.60;68.90;;;23.01;63.76;96643.56;4237813;33;19965;-87
2022/07/03 01:08:18;;;;;;;;;;;23.50;68.90;;;22.99;63.85;96641.13;4261396;33;19901;-87
2022/07/03 01:10:53;;;;;;;;;;;23.60;68.90;;;22.99;63.96;96646.69;4261958;33;20308;-86
2022/07/03 01:13:32;;;;;;;;;;;23.60;68.90;;;22.99;64.11;96651.44;4237750;33;20129;-86
2022/07/03 01:16:06;;;;;;;;;;;23.60;68.90;;;22.98;63.85;96645.06;4237669;33;20411;-87
2022/07/03 01:18:39;;;;;;;;;;;23.60;68.90;;;22.99;63.80;96640.28;4237527;33;20237;-86
2022/07/03 01:21:12;;;;;;;;;;;23.60;68.80;;;22.96;63.66;96636.19;4237376;33;20069;-87
2022/07/03 01:24:04;;;;;;;;;;;23.60;68.80;;;22.97;63.82;96632.25;4261111;33;20213;-87
2022/07/03 01:26:37;;;;;;;;;;;23.60;68.80;;;22.99;63.76;96629.13;4237535;33;19902;-87
2022/07/03 01:29:11;;;;;;;;;;;23.60;68.80;;;22.97;63.63;96632.25;4261091;33;20221;-87
2022/07/03 01:31:40;;;;;;;;;;;23.60;68.80;;;22.97;63.73;96621.09;4260299;33;20313;-86
2022/07/03 01:34:12;;;;;;;;;;;23.60;68.80;;;22.98;63.82;96633.06;4237380;33;19963;-86
2022/07/03 01:36:42;;;;;;;;;;;23.60;68.80;;;22.97;63.41;96631.44;4261185;33;19956;-86
2022/07/03 01:39:11;;;;;;;;;;;23.60;68.80;;;22.96;63.54;96627.84;4237089;33;19902;-86
2022/07/03 01:41:42;;;;;;;;;;;23.60;68.70;;;22.96;63.59;96625.03;4236839;33;20102;-86
2022/07/03 01:44:10;;;;;;;;;;;23.50;68.60;;;22.96;63.60;96615.84;4260993;33;20002;-87
2022/07/03 01:46:39;;;;;;;;;;;23.50;68.70;;;22.96;63.78;96613.06;4261843;33;19902;-86
2022/07/03 01:49:08;;;;;;;;;;;23.50;68.60;;;22.95;63.76;96617.81;4237162;33;19902;-86
2022/07/03 01:51:36;;;;;;;;;;;23.50;68.60;;;22.95;63.57;96612.22;4260541;33;19902;-86
2022/07/03 01:54:05;;;;;;;;;;;23.50;68.60;;;22.95;63.54;96614.22;4236739;33;20125;-86
2022/07/03 01:56:34;;;;;;;;;;;23.50;68.50;;;22.92;63.35;96609.31;4260546;33;20032;-86
2022/07/03 01:59:04;;;;;;;;;;;23.50;68.50;;;22.93;63.61;96603.38;4260854;33;19902;-87
2022/07/03 02:01:44;;;;;;;;;;;23.50;68.50;;;22.94;63.18;96607.00;4260478;33;20098;-86
2022/07/03 02:04:16;;;;;;;;;;;23.50;68.50;;;22.92;63.68;96607.31;4236806;33;20073;-86
2022/07/03 02:06:50;;;;;;;;;;;23.50;68.40;;;22.91;63.21;96608.50;4260887;33;19909;-86
2022/07/03 02:09:19;;;;;;;;;;;23.50;68.40;;;22.92;63.47;96607.31;4237020;33;20170;-86
2022/07/03 02:11:48;;;;;;;;;;;23.50;68.40;;;22.91;63.24;96605.72;4259787;33;20217;-87
2022/07/03 02:14:20;;;;;;;;;;;23.50;68.30;;;22.91;63.51;96604.88;4260744;33;19954;-86
2022/07/03 02:16:54;;;;;;;;;;;23.50;68.30;;;22.91;63.40;96619.69;4261768;33;19909;-86
2022/07/03 02:19:29;;;;;;;;;;;23.50;68.40;;;22.90;63.16;96611.63;4260603;33;19909;-86
2022/07/03 02:21:58;;;;;;;;;;;23.50;68.40;;;22.91;63.06;96611.31;4236593;33;20346;-86
2022/07/03 02:24:29;;;;;;;;;;;23.50;68.30;;;22.90;63.38;96609.66;4236854;33;20154;-86
2022/07/03 02:27:00;;;;;;;;;;;23.50;68.30;;;22.89;63.18;96602.44;4260822;33;20514;-86
2022/07/03 02:29:36;;;;;;;;;;;23.40;68.20;;;22.89;63.41;96608.03;4236742;33;19908;-86
2022/07/03 02:32:08;;;;;;;;;;;23.50;68.30;;;22.89;63.41;96605.25;4259719;33;19902;-86
2022/07/03 02:34:37;;;;;;;;;;;23.50;68.30;;;22.89;63.17;96601.63;4260623;33;20217;-86
2022/07/03 02:37:12;;;;;;;;;;;23.50;68.30;;;22.88;63.23;96609.19;4259884;33;19901;-86
2022/07/03 02:39:46;;;;;;;;;;;23.50;68.30;;;22.88;62.91;96609.19;4259438;33;19974;-86
2022/07/03 02:42:26;;;;;;;;;;;23.50;68.20;;;22.87;63.20;96609.50;4261109;33;20152;-86
2022/07/03 02:44:56;;;;;;;;;;;23.50;68.20;;;22.87;63.08;96615.94;4261790;33;20117;-86
2022/07/03 02:47:30;;;;;;;;;;;23.50;68.30;;;22.87;62.92;96610.34;4239149;33;20249;-86
2022/07/03 02:50:04;;;;;;;;;;;23.40;68.10;;;22.87;63.28;96615.09;4263366;33;20007;-86
2022/07/03 02:52:46;;;;;;;;;;;23.50;68.20;;;22.86;63.03;96614.28;4262761;33;19913;-86
2022/07/03 02:55:28;;;;;;;;;;;23.40;68.10;;;22.86;63.29;96619.88;4262821;33;19901;-86
2022/07/03 02:58:02;;;;;;;;;;;23.40;68.10;;;22.86;63.08;96614.28;4238957;33;19901;-86
2022/07/03 03:00:34;;;;;;;;;;;23.40;68.00;;;22.87;62.86;96615.09;4262287;33;20097;-86
2022/07/03 03:03:02;;;;;;;;;;;23.50;68.10;;;22.85;62.98;96618.25;4262816;33;20108;-86
2022/07/03 03:05:36;;;;;;;;;;;23.40;68.00;;;22.86;63.01;96616.25;4238938;33;20145;-86
2022/07/03 03:08:19;;;;;;;;;;;23.40;68.00;;;22.85;63.20;96615.44;4238784;33;19902;-86
2022/07/03 03:10:48;;;;;;;;;;;23.50;68.20;;;22.85;62.99;96614.66;4262135;33;20013;-86
2022/07/03 03:13:20;;;;;;;;;;;23.40;68.00;;;22.85;62.80;96609.88;4239356;33;19902;-86
2022/07/03 03:15:59;;;;;;;;;;;23.40;68.00;;;22.85;63.00;96606.28;4262688;33;20144;-86
2022/07/03 03:18:29;;;;;;;;;;;23.40;68.00;;;22.85;63.00;96604.28;4262455;33;19909;-86
2022/07/03 03:21:02;;;;;;;;;;;23.40;68.00;;;22.85;63.20;96600.69;4261925;33;20126;-86
2022/07/03 03:23:48;;;;;;;;;;;23.40;68.00;;;22.85;63.00;96590.31;4262512;33;19902;-87
2022/07/03 03:26:18;;;;;;;;;;;23.40;68.00;;;22.84;63.15;96602.66;4238903;33;20117;-86
2022/07/03 03:28:47;;;;;;;;;;;23.40;68.00;;;22.85;62.68;96601.50;4263247;33;19909;-86
2022/07/03 03:31:18;;;;;;;;;;;23.40;67.90;;;22.85;62.82;96601.50;4238008;33;19902;-86
2022/07/03 03:33:49;;;;;;;;;;;23.40;68.00;;;22.85;62.99;96595.91;4238681;33;19909;-86
2022/07/03 03:36:19;;;;;;;;;;;23.50;68.00;;;22.87;63.04;96601.97;4238323;33;19924;-86
2022/07/03 03:38:48;;;;;;;;;;;23.50;68.00;;;22.86;62.73;96599.50;4262287;33;20257;-86
2022/07/03 03:53:00;;;;;;;;;;;23.50;67.80;;;22.89;63.01;96610.00;4302116;32;20128;-85
2022/07/03 03:55:29;;;;;;;;;;;23.50;68.30;;;22.89;63.09;96610.81;4249871;33;20250;-85
2022/07/03 03:57:58;;;;;;;;;;;23.50;68.30;;;22.89;62.60;96605.25;4274121;33;19902;-85
2022/07/03 04:00:26;;;;;;;;;;;23.50;68.40;;;22.89;63.39;96604.41;4274040;33;19902;-85
2022/07/03 04:02:55;;;;;;;;;;;23.50;68.50;;;22.90;63.23;96604.09;4273808;33;19908;-85
2022/07/03 04:05:24;;;;;;;;;;;23.50;68.40;;;22.90;62.86;96606.88;4273177;33;20068;-85
2022/07/03 04:07:52;;;;;;;;;;;23.50;68.40;;;22.90;63.06;96598.50;4249168;33;19910;-85
2022/07/03 04:10:23;;;;;;;;;;;23.50;68.50;;;22.90;63.29;96597.66;4273158;33;19901;-85
2022/07/03 04:12:51;;;;;;;;;;;23.50;68.50;;;22.93;63.42;96608.16;4248539;33;19902;-85
2022/07/03 04:15:20;;;;;;;;;;;23.50;68.50;;;22.94;63.32;96607.81;4273180;33;19954;-85
2022/07/03 04:17:52;;;;;;;;;;;23.50;68.50;;;22.96;62.95;96601.91;4272918;33;19974;-85
2022/07/03 04:20:21;;;;;;;;;;;23.60;68.40;;;22.97;63.40;96603.53;4249146;33;20232;-85
2022/07/03 04:22:50;;;;;;;;;;;23.50;68.40;;;22.99;62.95;96602.03;4248788;33;19963;-85
2022/07/03 04:25:18;;;;;;;;;;;23.60;68.30;;;23.02;63.06;96608.09;4273112;33;19975;-85
2022/07/03 04:27:49;;;;;;;;;;;23.60;68.40;;;23.04;62.93;96609.38;4248989;33;20115;-85
2022/07/03 04:30:17;;;;;;;;;;;23.60;68.30;;;23.07;63.04;96607.88;4273993;33;20122;-85
2022/07/03 04:32:47;;;;;;;;;;;23.70;68.30;;;23.08;63.23;96607.53;4272152;33;20007;-85
2022/07/03 04:35:16;;;;;;;;;;;23.60;68.10;;;23.10;62.96;96608.00;4272838;33;20096;-85
2022/07/03 04:37:44;;;;;;;;;;;23.70;68.20;;;23.12;63.25;96604.88;4273880;33;19935;-86
2022/07/03 04:40:13;;;;;;;;;;;23.70;68.20;;;23.14;63.22;96613.72;4272950;33;19901;-85
2022/07/03 04:42:42;;;;;;;;;;;23.70;68.30;;;23.16;62.95;96616.16;4248384;33;19902;-85
2022/07/03 04:45:12;;;;;;;;;;;23.70;68.30;;;23.17;62.92;96612.22;4272631;33;19909;-85
2022/07/03 04:47:41;;;;;;;;;;;23.80;68.20;;;23.18;63.37;96614.66;4272667;33;19902;-85
2022/07/03 04:50:10;;;;;;;;;;;23.80;68.20;;;23.19;62.94;96605.13;4273645;33;19909;-86
2022/07/03 04:52:38;;;;;;;;;;;23.80;68.10;;;23.21;63.06;96614.00;4267648;33;20235;-85
2022/07/03 04:55:09;;;;;;;;;;;23.80;68.20;;;23.23;63.01;96617.28;4287246;33;20393;-85
2022/07/03 04:57:38;;;;;;;;;;;23.80;68.10;;;23.25;62.85;96625.28;4262914;33;20155;-85
2022/07/03 05:00:08;;;;;;;;;;;23.90;68.30;;;23.25;63.27;96614.97;4263942;33;20060;-86
2022/07/03 05:02:38;;;;;;;;;;;23.90;68.20;;;23.26;62.92;96611.00;4262470;33;19988;-84
2022/07/03 05:05:08;;;;;;;;;;;23.90;68.30;;;23.28;62.81;96614.28;4263126;33;19907;-85
2022/07/03 05:07:37;;;;;;;;;;;23.90;68.10;;;23.31;63.07;96615.56;4262604;33;20130;-84
2022/07/03 05:10:07;;;;;;;;;;;23.90;68.00;;;23.33;63.01;96609.63;4262856;33;19901;-85
2022/07/03 05:12:35;;;;;;;;;;;23.90;68.00;;;23.35;63.05;96608.13;4262019;33;19909;-85
2022/07/03 05:15:05;;;;;;;;;;;23.90;67.80;;;23.37;62.77;96611.38;4262805;33;19902;-86
2022/07/03 05:17:35;;;;;;;;;;;24.00;67.70;;;23.41;62.85;96611.53;4261821;33;20129;-85
2022/07/03 05:22:52;;;;;;;;;;;24.00;67.70;;;23.44;62.74;96617.22;4262778;33;20240;-85
2022/07/03 05:25:20;;;;;;;;;;;24.00;67.60;;;23.46;62.38;96608.50;4262629;33;20075;-86
2022/07/03 05:27:50;;;;;;;;;;;24.00;67.50;;;23.47;62.32;96617.72;4262454;33;19902;-85
2022/07/03 05:30:18;;;;;;;;;;;24.10;67.40;;;23.48;62.29;96619.34;4262434;33;19902;-85
2022/07/03 05:32:47;;;;;;;;;;;24.10;67.50;;;23.49;62.45;96627.38;4238102;33;20379;-85
2022/07/03 05:35:17;;;;;;;;;;;24.10;67.40;;;23.48;62.21;96622.94;4263141;33;20216;-86
2022/07/03 05:37:46;;;;;;;;;;;24.10;67.40;;;23.50;62.51;96622.59;4262538;33;20135;-85
2022/07/03 05:40:14;;;;;;;;;;;24.10;67.30;;;23.48;62.45;96610.97;4262505;33;20307;-85
2022/07/03 05:42:43;;;;;;;;;;;24.10;67.40;;;23.50;62.61;96617.00;4262672;33;20274;-85
2022/07/03 05:45:12;;;;;;;;;;;24.10;68.20;;;23.51;62.46;96624.22;4262528;33;19902;-85
2022/07/03 05:47:40;;;;;;;;;;;24.10;67.40;;;23.51;62.29;96621.44;4262184;33;20002;-85
2022/07/03 05:50:10;;;;;;;;;;;24.10;67.40;;;23.50;62.20;96625.38;4262034;33;19942;-85
2022/07/03 05:52:40;;;;;;;;;;;24.10;67.30;;;23.51;62.22;96611.09;4237711;33;19902;-85
2022/07/03 05:55:10;;;;;;;;;;;24.10;67.30;;;23.53;62.22;96619.09;4263253;33;20216;-85
2022/07/03 05:57:38;;;;;;;;;;;24.10;67.30;;;23.54;62.59;96613.19;4261897;33;20262;-85
2022/07/03 06:00:08;;;;;;;;;;;24.10;67.30;;;23.55;62.60;96617.63;4261945;33;20116;-84
2022/07/03 06:02:38;;;;;;;;;;;24.10;67.30;;;23.57;62.51;96617.25;4237667;33;20025;-85
2022/07/03 06:05:07;;;;;;;;;;;24.20;67.30;;;23.57;62.59;96608.88;4261321;33;19902;-85
2022/07/03 06:07:36;;;;;;;;;;;24.20;67.30;;;23.56;62.38;96599.66;4238059;33;19902;-85
2022/07/03 06:10:08;;;;;;;;;;;24.20;67.40;;;23.62;62.44;96610.63;4263007;33;20389;-86
2022/07/03 06:12:36;;;;;;;;;;;24.20;67.30;;;23.64;62.32;96602.72;4261484;33;19908;-84
2022/07/03 06:15:06;;;;;;;;;;;24.20;67.30;;;23.65;62.62;96607.16;4262857;33;20328;-84
2022/07/03 06:17:36;;;;;;;;;;;24.20;67.30;;;23.67;62.54;96610.41;4262901;33;20034;-84
2022/07/03 06:20:06;;;;;;;;;;;24.20;67.20;;;23.68;62.18;96600.88;4262786;33;19977;-84
2022/07/03 06:22:35;;;;;;;;;;;24.20;67.30;;;23.68;62.57;96607.28;4261167;33;20432;-85
2022/07/03 06:25:04;;;;;;;;;;;24.30;67.20;;;23.72;62.17;96604.59;4262620;33;19901;-84
2022/07/03 06:27:34;;;;;;;;;;;24.30;67.20;;;23.72;62.29;96610.19;4262841;33;19970;-85
2022/07/03 06:30:03;;;;;;;;;;;24.30;67.20;;;23.74;62.27;96599.47;4262659;33;19909;-84
2022/07/03 06:32:31;;;;;;;;;;;24.30;67.10;;;23.75;62.18;96603.91;4261312;33;19902;-85
2022/07/03 06:35:00;;;;;;;;;;;24.30;67.10;;;23.75;62.42;96598.31;4261649;33;19902;-85
2022/07/03 06:37:29;;;;;;;;;;;24.30;67.10;;;23.76;62.03;96602.75;4261720;33;20244;-85
2022/07/03 06:39:57;;;;;;;;;;;24.30;67.10;;;23.77;62.25;96601.59;4261569;33;19909;-85
2022/07/03 06:42:26;;;;;;;;;;;24.30;67.10;;;23.78;62.90;96597.63;4261015;33;20144;-84
2022/07/03 06:44:56;;;;;;;;;;;24.40;67.10;;;23.80;62.45;96600.91;4261433;33;19909;-85
2022/07/03 06:47:24;;;;;;;;;;;24.40;67.10;;;23.83;62.35;96607.75;4262460;33;20236;-84
2022/07/03 06:49:53;;;;;;;;;;;24.40;67.10;;;23.84;61.88;96601.81;4262440;33;19961;-84
2022/07/03 06:52:22;;;;;;;;;;;24.40;67.00;;;23.86;61.92;96595.88;4261668;33;19902;-84
2022/07/03 06:54:50;;;;;;;;;;;24.40;66.90;;;23.86;62.14;96596.69;4261496;33;20371;-85
2022/07/03 06:57:19;;;;;;;;;;;24.50;66.90;;;23.89;61.84;96598.78;4285803;33;20004;-84
2022/07/03 06:59:48;;;;;;;;;;;24.50;67.00;;;23.92;62.08;96593.69;4261466;33;20038;-84
2022/07/03 07:02:18;;;;;;;;;;;24.50;66.90;;;23.93;62.10;96598.09;4261872;33;20042;-85
2022/07/03 07:04:46;;;;;;;;;;;24.50;66.80;;;23.95;61.64;96595.75;4261325;33;19952;-85
2022/07/03 07:07:15;;;;;;;;;;;24.50;66.80;;;23.96;61.85;96589.03;4261384;33;20074;-85
2022/07/03 07:09:43;;;;;;;;;;;24.50;66.80;;;23.99;61.81;96591.13;4237523;33;20095;-85
2022/07/03 07:12:12;;;;;;;;;;;24.60;66.70;;;24.00;61.58;96592.78;4261395;33;20076;-85
2022/07/03 07:14:41;;;;;;;;;;;24.60;66.60;;;24.01;61.76;96588.81;4261964;33;20027;-85
2022/07/03 07:17:09;;;;;;;;;;;24.60;66.60;;;24.02;61.65;96590.44;4262008;33;19940;-85
2022/07/03 07:19:39;;;;;;;;;;;24.60;66.60;;;24.02;61.90;96590.44;4262337;33;19925;-85
2022/07/03 07:22:08;;;;;;;;;;;24.60;66.60;;;24.02;62.00;96594.03;4261675;33;19913;-85
2022/07/03 07:24:36;;;;;;;;;;;24.60;66.50;;;24.03;61.50;96587.28;4262157;33;19909;-85
2022/07/03 07:27:06;;;;;;;;;;;24.60;66.50;;;24.06;61.79;96591.38;4260714;33;19982;-84
2022/07/03 07:29:34;;;;;;;;;;;24.60;66.50;;;24.06;61.52;96585.78;4261238;33;19901;-84
2022/07/03 07:32:04;;;;;;;;;;;24.60;66.50;;;24.07;61.71;96583.78;4260693;33;20008;-84
2022/07/03 07:34:32;;;;;;;;;;;24.60;66.50;;;24.07;61.46;96584.63;4261126;33;20067;-84
2022/07/03 07:37:02;;;;;;;;;;;24.60;66.50;;;24.08;61.65;96577.84;4237506;33;19902;-85
2022/07/03 07:39:31;;;;;;;;;;;24.60;66.50;;;24.08;61.71;96577.84;4261164;33;20160;-86
2022/07/03 07:41:59;;;;;;;;;;;24.60;66.40;;;24.08;61.65;96580.63;4261727;33;20124;-85
2022/07/03 07:44:28;;;;;;;;;;;24.70;66.60;;;24.08;61.80;96575.03;4261918;33;19980;-85
2022/07/03 07:46:56;;;;;;;;;;;24.70;66.60;;;24.09;61.41;96568.28;4261048;33;19902;-84
2022/07/03 07:49:25;;;;;;;;;;;24.60;66.50;;;24.11;61.50;96568.75;4261452;33;19924;-86
2022/07/03 07:51:54;;;;;;;;;;;24.70;66.60;;;24.10;61.47;96572.72;4260523;33;19909;-85
2022/07/03 07:54:24;;;;;;;;;;;24.70;66.60;;;24.12;61.68;96567.59;4237226;33;19901;-85
2022/07/03 07:56:53;;;;;;;;;;;24.70;66.60;;;24.12;61.75;96570.38;4237312;33;20179;-85
2022/07/03 07:59:21;;;;;;;;;;;24.70;66.60;;;24.13;61.76;96566.44;4261172;33;20192;-85
2022/07/03 08:07:22;;;;;;;;;;;24.70;66.60;;;24.14;61.63;96570.06;4231953;33;20125;-86
2022/07/03 08:09:53;;;;;;;;;;;24.70;66.60;;;24.14;61.76;96576.47;4233191;33;20086;-86
2022/07/03 08:12:21;;;;;;;;;;;24.70;66.70;;;24.12;61.88;96573.19;4231737;33;19909;-85
2022/07/03 08:14:50;;;;;;;;;;;24.70;66.60;;;24.11;61.78;96571.56;4232238;33;19950;-86
2022/07/03 08:17:19;;;;;;;;;;;24.70;66.70;;;24.13;61.99;96574.03;4208693;33;20010;-86
2022/07/03 08:19:47;;;;;;;;;;;24.70;66.70;;;24.11;61.86;96571.56;4232146;33;20240;-86
2022/07/03 08:22:16;;;;;;;;;;;24.70;66.80;;;24.11;61.90;96577.16;4255578;33;19903;-86
2022/07/03 08:24:44;;;;;;;;;;;24.70;66.70;;;24.11;62.11;96577.16;4208695;33;19968;-86
2022/07/03 08:27:14;;;;;;;;;;;24.70;66.70;;;24.10;61.62;96569.13;4232270;33;19910;-86
2022/07/03 08:29:43;;;;;;;;;;;24.70;66.80;;;24.10;62.15;96563.53;4234613;33;20217;-86
2022/07/03 08:32:12;;;;;;;;;;;24.70;66.80;;;24.08;62.17;96561.06;4233975;33;19909;-86
2022/07/03 08:34:40;;;;;;;;;;;24.60;66.80;;;24.08;61.83;96566.66;4211009;33;20054;-86
2022/07/03 08:37:09;;;;;;;;;;;24.60;66.80;;;24.08;62.17;96563.06;4234630;33;19933;-86
2022/07/03 08:39:38;;;;;;;;;;;24.60;66.80;;;24.06;61.81;96569.00;4210590;33;20133;-86
2022/07/03 08:42:07;;;;;;;;;;;24.70;66.80;;;24.06;62.06;96566.22;4243923;33;19902;-86
2022/07/03 08:44:49;;;;;;;;;;;24.70;66.90;;;24.04;61.90;96565.75;4239224;33;20029;-86
2022/07/03 08:47:18;;;;;;;;;;;24.70;66.90;;;24.04;62.20;96560.16;4241314;33;19906;-85
2022/07/03 08:49:47;;;;;;;;;;;24.70;66.90;;;24.06;62.28;96563.41;4254234;33;20389;-86
2022/07/03 08:52:15;;;;;;;;;;;24.60;66.80;;;24.07;61.92;96555.81;4210417;33;19902;-86
2022/07/03 08:54:44;;;;;;;;;;;24.70;66.90;;;24.07;62.03;96559.47;4233707;33;19909;-86
2022/07/03 08:57:13;;;;;;;;;;;24.60;66.80;;;24.07;62.10;96565.06;4263020;33;20079;-86
2022/07/03 08:59:43;;;;;;;;;;;24.60;66.90;;;24.08;62.25;96560.25;4250977;33;19902;-87
2022/07/03 09:02:12;;;;;;;;;;;24.70;66.90;;;24.06;62.11;96555.03;4234351;33;20091;-85
2022/07/03 09:04:40;;;;;;;;;;;24.60;66.80;;;24.07;62.04;96550.25;4233942;33;20125;-86
2022/07/03 09:07:23;;;;;;;;;;;24.70;66.90;;;24.07;62.24;96556.66;4235469;33;20348;-86
2022/07/03 09:10:09;;;;;;;;;;;24.70;66.90;;;24.05;61.98;96553.41;4234584;33;19909;-86
2022/07/03 09:12:50;;;;;;;;;;;24.70;66.90;;;24.05;62.01;96545.00;4233147;33;19910;-86
2022/07/03 09:15:21;;;;;;;;;;;24.70;66.90;;;24.07;62.14;96548.28;4210265;33;20114;-86
2022/07/03 09:18:03;;;;;;;;;;;24.60;66.90;;;24.06;62.14;96552.22;4234428;33;20159;-85
2022/07/03 09:20:33;;;;;;;;;;;24.70;66.90;;;24.08;62.01;96543.47;4261551;33;20110;-86
2022/07/03 09:23:15;;;;;;;;;;;24.70;66.90;;;24.07;61.86;96551.06;4262071;33;19988;-86
2022/07/03 09:25:54;;;;;;;;;;;24.70;66.90;;;24.08;62.11;96538.69;4210359;33;19993;-87
2022/07/03 09:28:24;;;;;;;;;;;24.60;66.80;;;24.07;62.17;96542.69;4210641;33;19902;-87
2022/07/03 09:31:01;;;;;;;;;;;24.70;66.90;;;24.05;62.31;96533.81;4238027;33;19902;-87
2022/07/03 09:33:35;;;;;;;;;;;24.70;66.90;;;24.06;61.95;96529.84;4263354;33;19942;-87
2022/07/03 09:36:04;;;;;;;;;;;24.70;67.00;;;24.07;62.36;96536.25;4238607;33;19953;-87
2022/07/03 09:38:44;;;;;;;;;;;24.70;67.10;;;24.05;61.73;96525.44;4238914;33;20136;-87
2022/07/03 09:41:14;;;;;;;;;;;24.70;67.00;;;24.05;62.06;96522.63;4262557;33;20015;-85
2022/07/03 09:43:58;;;;;;;;;;;24.70;67.10;;;24.04;62.16;96532.19;4261783;33;20318;-87
2022/07/03 09:46:28;;;;;;;;;;;24.70;67.10;;;24.06;62.31;96524.25;4238944;33;19902;-86
2022/07/03 09:48:57;;;;;;;;;;;24.60;66.90;;;24.06;62.05;96524.25;4237522;33;19908;-86
2022/07/03 09:51:26;;;;;;;;;;;24.70;67.00;;;24.04;62.37;96510.63;4261017;33;20128;-86
2022/07/03 09:53:57;;;;;;;;;;;24.70;67.10;;;24.05;62.10;96517.03;4238152;33;19902;-86
2022/07/03 09:56:27;;;;;;;;;;;24.70;67.10;;;24.04;62.45;96516.22;4238302;33;20052;-86
2022/07/03 09:59:11;;;;;;;;;;;24.70;67.10;;;24.04;62.22;96513.41;4261954;33;20229;-86
2022/07/03 10:01:42;;;;;;;;;;;24.60;67.00;;;24.04;62.45;96505.03;4237513;33;20053;-86
2022/07/03 10:04:17;;;;;;;;;;;24.70;67.10;;;24.03;62.15;96508.19;4237813;33;19909;-86
2022/07/03 10:06:54;;;;;;;;;;;24.60;67.00;;;24.03;62.40;96503.38;4262528;33;20036;-85
2022/07/03 10:09:25;;;;;;;;;;;24.70;67.10;;;24.04;62.52;96498.63;4237854;33;20143;-85
2022/07/03 10:11:54;;;;;;;;;;;24.60;67.10;;;24.02;62.32;96496.16;4261010;33;19980;-86
2022/07/03 10:14:24;;;;;;;;;;;24.60;67.10;;;24.01;62.18;96488.94;4261731;33;19958;-85
2022/07/03 10:16:55;;;;;;;;;;;24.60;67.10;;;24.03;62.18;96485.81;4261547;33;19902;-85
2022/07/03 10:19:25;;;;;;;;;;;24.60;67.10;;;24.02;62.56;96484.19;4261777;33;19902;-87
2022/07/03 10:21:55;;;;;;;;;;;24.60;67.10;;;24.01;62.41;96486.13;4237207;33;20107;-85
2022/07/03 10:24:25;;;;;;;;;;;24.60;67.10;;;24.01;62.21;96476.94;4261758;33;20213;-86
2022/07/03 10:26:54;;;;;;;;;;;24.60;67.20;;;23.99;62.33;96477.31;4237712;33;19959;-86
2022/07/03 10:29:24;;;;;;;;;;;24.60;67.30;;;24.00;62.55;96469.72;4261436;33;20024;-86
2022/07/03 10:31:54;;;;;;;;;;;24.60;67.30;;;24.00;62.49;96469.72;4232188;33;20317;-86
2022/07/03 10:34:23;;;;;;;;;;;24.60;67.30;;;24.00;62.62;96470.56;4233949;33;19902;-86
2022/07/03 10:36:55;;;;;;;;;;;24.60;67.30;;;24.00;62.74;96466.94;4233813;33;20061;-86
2022/07/03 10:39:39;;;;;;;;;;;24.60;67.30;;;24.01;62.38;96462.97;4232853;33;19902;-87
2022/07/03 10:45:07;;;;;;;;;;;24.60;67.30;;;23.99;62.34;96454.94;4261381;33;20180;-87
2022/07/03 10:47:44;;;;;;;;;;;24.60;67.40;;;23.98;62.63;96444.91;4261290;33;20057;-85
2022/07/03 10:50:14;;;;;;;;;;;24.60;67.40;;;23.98;62.53;96444.91;4237012;33;19901;-85
2022/07/03 10:52:43;;;;;;;;;;;24.60;67.40;;;23.99;62.67;96451.31;4260075;33;20032;-86
2022/07/03 10:55:13;;;;;;;;;;;24.60;67.40;;;23.98;62.79;96449.69;4261417;33;19914;-87
2022/07/03 10:57:42;;;;;;;;;;;24.60;67.40;;;23.97;62.59;96437.69;4260628;33;19925;-87
2022/07/03 11:00:19;;;;;;;;;;;24.60;67.40;;;23.99;62.64;96440.13;4261764;33;19902;-87
2022/07/03 11:02:51;;;;;;;;;;;24.60;67.30;;;23.98;63.00;96435.69;4236762;33;19902;-85
2022/07/03 11:05:25;;;;;;;;;;;24.60;67.50;;;23.97;62.53;96426.50;4237459;33;19977;-86
2022/07/03 11:08:15;;;;;;;;;;;24.60;67.40;;;23.97;62.63;96426.50;4262105;33;19987;-85
2022/07/03 11:10:44;;;;;;;;;;;24.60;67.50;;;23.98;62.42;96427.31;4237183;33;19902;-86
2022/07/03 11:13:20;;;;;;;;;;;24.60;67.40;;;23.97;62.78;96428.47;4236869;33;19902;-86
2022/07/03 11:15:51;;;;;;;;;;;24.60;67.40;;;23.97;62.78;96423.72;4261606;33;19902;-86
2022/07/03 11:18:34;;;;;;;;;;;24.60;67.40;;;23.95;62.52;96416.78;4237178;33;19975;-86
2022/07/03 11:21:34;;;;;;;;;;;24.60;67.50;;;23.98;62.62;96416.13;4260803;33;20035;-86
2022/07/03 11:24:40;;;;;;;;;;;24.60;67.50;;;23.98;62.81;96410.53;4261629;33;20405;-86
2022/07/03 11:27:24;;;;;;;;;;;24.60;67.50;;;23.96;62.51;96410.91;4203644;33;19902;-86
2022/07/03 11:29:58;;;;;;;;;;;24.60;67.50;;;23.96;62.56;96408.09;4236924;33;20536;-86
2022/07/03 11:32:49;;;;;;;;;;;24.60;67.50;;;23.96;62.48;96410.91;4261262;33;19912;-86
2022/07/03 11:35:51;;;;;;;;;;;24.60;67.50;;;23.98;62.49;96404.94;4260750;33;19902;-86
2022/07/03 11:38:27;;;;;;;;;;;24.60;67.60;;;23.97;62.51;96403.31;4240360;33;19901;-86
2022/07/03 11:40:58;;;;;;;;;;;24.60;67.60;;;23.99;62.51;96400.97;4236857;33;19902;-86
2022/07/03 11:43:26;;;;;;;;;;;24.60;67.50;;;23.99;62.58;96390.63;4236100;33;19902;-86
2022/07/03 11:45:55;;;;;;;;;;;24.60;67.80;;;24.00;62.86;96391.44;4261394;33;19901;-86
2022/07/03 11:48:25;;;;;;;;;;;24.60;67.50;;;23.99;62.72;96393.41;4260465;33;19909;-86
2022/07/03 11:51:01;;;;;;;;;;;24.60;67.40;;;24.00;62.46;96388.63;4261541;33;19901;-87
2022/07/03 11:53:30;;;;;;;;;;;24.60;67.40;;;24.00;62.57;96383.88;4260343;33;20169;-87
2022/07/03 11:56:00;;;;;;;;;;;24.60;67.50;;;23.99;62.66;96373.84;4261531;33;20381;-87
2022/07/03 11:58:42;;;;;;;;;;;24.60;67.40;;;24.00;62.52;96386.66;4260438;33;19902;-86